sensor_id;sensor_type;location;lat;lon;timestamp;P1;durP1;ratioP1;P2;durP2;ratioP2
9974;SDS011;5028;50.974;4.968;2023-03-01T00:00:48;6.70;;;5.57;;
9974;SDS011;5028;50.974;4.968;2023-03-01T00:03:26;7.00;;;5.60;;
9974;SDS011;5028;50.974;4.968;2023-03-01T00:05:54;8.67;;;6.17;;
9974;SDS011;5028;50.974;4.968;2023-03-01T00:08:37;7.50;;;5.63;;
9974;SDS011;5028;50.974;4.968;2023-03-01T00:11:06;7.73;;;5.07;;
9974;SDS011;5028;50.974;4.968;2023-03-01T00:13:42;6.87;;;5.63;;
9974;SDS011;5028;50.974;4.968;2023-03-01T00:16:14;8.07;;;6.03;;
9974;SDS011;5028;50.974;4.968;2023-03-01T00:18:54;7.33;;;5.73;;
9974;SDS011;5028;50.974;4.968;2023-03-01T00:21:24;6.17;;;5.57;;
9974;SDS011;5028;50.974;4.968;2023-03-01T00:23:59;8.13;;;5.70;;
9974;SDS011;5028;50.974;4.968;2023-03-01T00:26:29;6.10;;;5.47;;
9974;SDS011;5028;50.974;4.968;2023-03-01T00:29:04;6.97;;;6.10;;
9974;SDS011;5028;50.974;4.968;2023-03-01T00:31:32;6.40;;;5.80;;
9974;SDS011;5028;50.974;4.968;2023-03-01T00:34:10;7.07;;;6.10;;
9974;SDS011;5028;50.974;4.968;2023-03-01T00:36:38;7.00;;;5.77;;
9974;SDS011;5028;50.974;4.968;2023-03-01T00:39:14;7.17;;;6.07;;
9974;SDS011;5028;50.974;4.968;2023-03-01T00:41:43;10.00;;;6.57;;
9974;SDS011;5028;50.974;4.968;2023-03-01T00:44:18;6.10;;;5.50;;
9974;SDS011;5028;50.974;4.968;2023-03-01T00:46:47;6.33;;;5.57;;
9974;SDS011;5028;50.974;4.968;2023-03-01T00:49:23;6.37;;;5.70;;
9974;SDS011;5028;50.974;4.968;2023-03-01T00:51:53;7.90;;;5.73;;
9974;SDS011;5028;50.974;4.968;2023-03-01T00:54:29;7.73;;;6.17;;
9974;SDS011;5028;50.974;4.968;2023-03-01T00:56:58;7.40;;;5.90;;
9974;SDS011;5028;50.974;4.968;2023-03-01T00:59:33;9.43;;;6.47;;
9974;SDS011;5028;50.974;4.968;2023-03-01T01:02:02;8.70;;;5.77;;
9974;SDS011;5028;50.974;4.968;2023-03-01T01:04:39;6.53;;;5.60;;
9974;SDS011;5028;50.974;4.968;2023-03-01T01:07:07;7.20;;;5.50;;
9974;SDS011;5028;50.974;4.968;2023-03-01T01:09:43;6.97;;;5.43;;
9974;SDS011;5028;50.974;4.968;2023-03-01T01:12:12;7.37;;;6.20;;
9974;SDS011;5028;50.974;4.968;2023-03-01T01:14:47;7.33;;;6.13;;
9974;SDS011;5028;50.974;4.968;2023-03-01T01:17:16;7.43;;;6.27;;
9974;SDS011;5028;50.974;4.968;2023-03-01T01:19:52;6.07;;;5.47;;
9974;SDS011;5028;50.974;4.968;2023-03-01T01:22:21;6.80;;;5.47;;
9974;SDS011;5028;50.974;4.968;2023-03-01T01:24:56;8.90;;;6.10;;
9974;SDS011;5028;50.974;4.968;2023-03-01T01:27:25;7.03;;;5.80;;
9974;SDS011;5028;50.974;4.968;2023-03-01T01:30:00;5.97;;;5.37;;
9974;SDS011;5028;50.974;4.968;2023-03-01T01:32:28;7.67;;;6.10;;
9974;SDS011;5028;50.974;4.968;2023-03-01T01:35:06;6.03;;;5.43;;
9974;SDS011;5028;50.974;4.968;2023-03-01T01:37:35;7.10;;;5.93;;
9974;SDS011;5028;50.974;4.968;2023-03-01T01:40:10;7.33;;;6.17;;
9974;SDS011;5028;50.974;4.968;2023-03-01T01:42:39;6.20;;;5.57;;
9974;SDS011;5028;50.974;4.968;2023-03-01T01:45:26;6.90;;;6.20;;
9974;SDS011;5028;50.974;4.968;2023-03-01T01:47:58;7.87;;;6.13;;
9974;SDS011;5028;50.974;4.968;2023-03-01T01:50:40;9.17;;;6.53;;
9974;SDS011;5028;50.974;4.968;2023-03-01T01:53:12;8.57;;;6.20;;
9974;SDS011;5028;50.974;4.968;2023-03-01T01:55:51;7.50;;;6.00;;
9974;SDS011;5028;50.974;4.968;2023-03-01T01:58:23;7.67;;;6.53;;
9974;SDS011;5028;50.974;4.968;2023-03-01T02:01:00;6.30;;;5.63;;
9974;SDS011;5028;50.974;4.968;2023-03-01T02:03:29;6.97;;;6.27;;
9974;SDS011;5028;50.974;4.968;2023-03-01T02:06:15;7.30;;;5.93;;
9974;SDS011;5028;50.974;4.968;2023-03-01T02:08:54;8.00;;;6.57;;
9974;SDS011;5028;50.974;4.968;2023-03-01T02:11:27;8.20;;;6.13;;
9974;SDS011;5028;50.974;4.968;2023-03-01T02:14:05;8.97;;;6.17;;
9974;SDS011;5028;50.974;4.968;2023-03-01T02:16:35;6.70;;;6.00;;
9974;SDS011;5028;50.974;4.968;2023-03-01T02:19:17;6.43;;;5.83;;
9974;SDS011;5028;50.974;4.968;2023-03-01T02:21:55;6.83;;;6.13;;
9974;SDS011;5028;50.974;4.968;2023-03-01T02:24:40;6.97;;;6.20;;
9974;SDS011;5028;50.974;4.968;2023-03-01T02:27:29;7.97;;;5.97;;
9974;SDS011;5028;50.974;4.968;2023-03-01T02:30:26;7.40;;;6.10;;
9974;SDS011;5028;50.974;4.968;2023-03-01T02:32:56;7.13;;;6.07;;
9974;SDS011;5028;50.974;4.968;2023-03-01T02:35:37;8.03;;;6.23;;
9974;SDS011;5028;50.974;4.968;2023-03-01T02:38:08;8.70;;;6.57;;
9974;SDS011;5028;50.974;4.968;2023-03-01T02:40:43;6.90;;;6.17;;
9974;SDS011;5028;50.974;4.968;2023-03-01T02:43:12;7.00;;;6.30;;
9974;SDS011;5028;50.974;4.968;2023-03-01T02:45:50;8.27;;;6.17;;
9974;SDS011;5028;50.974;4.968;2023-03-01T02:48:20;7.23;;;5.80;;
9974;SDS011;5028;50.974;4.968;2023-03-01T02:51:02;6.77;;;6.13;;
9974;SDS011;5028;50.974;4.968;2023-03-01T02:53:39;7.47;;;6.03;;
9974;SDS011;5028;50.974;4.968;2023-03-01T02:56:19;6.97;;;6.27;;
9974;SDS011;5028;50.974;4.968;2023-03-01T02:58:48;6.70;;;6.00;;
9974;SDS011;5028;50.974;4.968;2023-03-01T03:01:33;7.60;;;6.57;;
9974;SDS011;5028;50.974;4.968;2023-03-01T03:04:04;7.10;;;6.40;;
9974;SDS011;5028;50.974;4.968;2023-03-01T03:06:58;7.43;;;6.50;;
9974;SDS011;5028;50.974;4.968;2023-03-01T03:09:27;7.40;;;5.90;;
9974;SDS011;5028;50.974;4.968;2023-03-01T03:12:03;6.70;;;5.80;;
9974;SDS011;5028;50.974;4.968;2023-03-01T03:14:33;9.67;;;6.40;;
9974;SDS011;5028;50.974;4.968;2023-03-01T03:17:10;6.80;;;6.10;;
9974;SDS011;5028;50.974;4.968;2023-03-01T03:19:39;7.37;;;6.67;;
9974;SDS011;5028;50.974;4.968;2023-03-01T03:22:21;7.30;;;6.10;;
9974;SDS011;5028;50.974;4.968;2023-03-01T03:24:50;8.70;;;6.73;;
9974;SDS011;5028;50.974;4.968;2023-03-01T03:27:25;7.10;;;6.40;;
9974;SDS011;5028;50.974;4.968;2023-03-01T03:29:55;6.13;;;5.53;;
9974;SDS011;5028;50.974;4.968;2023-03-01T03:32:32;6.93;;;6.10;;
9974;SDS011;5028;50.974;4.968;2023-03-01T03:35:01;6.47;;;5.87;;
9974;SDS011;5028;50.974;4.968;2023-03-01T03:37:42;8.83;;;7.30;;
9974;SDS011;5028;50.974;4.968;2023-03-01T03:40:30;8.87;;;7.20;;
9974;SDS011;5028;50.974;4.968;2023-03-01T03:43:07;8.50;;;6.60;;
9974;SDS011;5028;50.974;4.968;2023-03-01T03:45:37;10.17;;;6.70;;
9974;SDS011;5028;50.974;4.968;2023-03-01T03:48:14;7.33;;;6.50;;
9974;SDS011;5028;50.974;4.968;2023-03-01T03:50:47;8.63;;;7.10;;
9974;SDS011;5028;50.974;4.968;2023-03-01T03:53:25;8.50;;;6.90;;
9974;SDS011;5028;50.974;4.968;2023-03-01T03:55:55;9.07;;;6.57;;
9974;SDS011;5028;50.974;4.968;2023-03-01T03:58:32;7.20;;;6.50;;
9974;SDS011;5028;50.974;4.968;2023-03-01T04:01:01;8.47;;;7.50;;
9974;SDS011;5028;50.974;4.968;2023-03-01T04:03:39;7.63;;;6.87;;
9974;SDS011;5028;50.974;4.968;2023-03-01T04:06:21;10.10;;;6.50;;
9974;SDS011;5028;50.974;4.968;2023-03-01T04:08:57;7.70;;;6.90;;
9974;SDS011;5028;50.974;4.968;2023-03-01T04:11:33;7.60;;;6.80;;
9974;SDS011;5028;50.974;4.968;2023-03-01T04:14:02;7.03;;;6.30;;
9974;SDS011;5028;50.974;4.968;2023-03-01T04:16:38;9.07;;;7.03;;
9974;SDS011;5028;50.974;4.968;2023-03-01T04:19:09;9.17;;;7.17;;
9974;SDS011;5028;50.974;4.968;2023-03-01T04:21:44;7.87;;;6.47;;
9974;SDS011;5028;50.974;4.968;2023-03-01T04:24:13;7.97;;;6.90;;
9974;SDS011;5028;50.974;4.968;2023-03-01T04:26:48;8.43;;;6.80;;
9974;SDS011;5028;50.974;4.968;2023-03-01T04:29:17;9.50;;;6.97;;
9974;SDS011;5028;50.974;4.968;2023-03-01T04:31:53;9.17;;;7.07;;
9974;SDS011;5028;50.974;4.968;2023-03-01T04:34:23;8.77;;;7.17;;
9974;SDS011;5028;50.974;4.968;2023-03-01T04:37:02;7.53;;;6.73;;
9974;SDS011;5028;50.974;4.968;2023-03-01T04:39:32;8.27;;;7.30;;
9974;SDS011;5028;50.974;4.968;2023-03-01T04:42:18;7.93;;;7.13;;
9974;SDS011;5028;50.974;4.968;2023-03-01T04:44:47;8.90;;;7.60;;
9974;SDS011;5028;50.974;4.968;2023-03-01T04:47:24;8.17;;;7.00;;
9974;SDS011;5028;50.974;4.968;2023-03-01T04:49:55;7.50;;;6.40;;
9974;SDS011;5028;50.974;4.968;2023-03-01T04:52:30;8.20;;;6.90;;
9974;SDS011;5028;50.974;4.968;2023-03-01T04:54:59;7.23;;;6.50;;
9974;SDS011;5028;50.974;4.968;2023-03-01T04:57:34;7.67;;;6.83;;
9974;SDS011;5028;50.974;4.968;2023-03-01T05:00:04;8.30;;;6.60;;
9974;SDS011;5028;50.974;4.968;2023-03-01T05:02:53;7.50;;;6.60;;
9974;SDS011;5028;50.974;4.968;2023-03-01T05:05:38;7.50;;;6.80;;
9974;SDS011;5028;50.974;4.968;2023-03-01T05:08:13;7.57;;;6.80;;
9974;SDS011;5028;50.974;4.968;2023-03-01T05:10:45;8.63;;;7.10;;
9974;SDS011;5028;50.974;4.968;2023-03-01T05:13:22;7.67;;;6.73;;
9974;SDS011;5028;50.974;4.968;2023-03-01T05:15:53;10.43;;;6.97;;
9974;SDS011;5028;50.974;4.968;2023-03-01T05:18:30;7.63;;;6.63;;
9974;SDS011;5028;50.974;4.968;2023-03-01T05:21:03;7.10;;;6.40;;
9974;SDS011;5028;50.974;4.968;2023-03-01T05:23:39;7.87;;;6.97;;
9974;SDS011;5028;50.974;4.968;2023-03-01T05:26:08;8.60;;;7.07;;
9974;SDS011;5028;50.974;4.968;2023-03-01T05:28:54;7.93;;;7.13;;
9974;SDS011;5028;50.974;4.968;2023-03-01T05:31:26;8.10;;;6.70;;
9974;SDS011;5028;50.974;4.968;2023-03-01T05:34:03;8.23;;;6.50;;
9974;SDS011;5028;50.974;4.968;2023-03-01T05:36:35;9.10;;;6.90;;
9974;SDS011;5028;50.974;4.968;2023-03-01T05:39:11;7.80;;;7.00;;
9974;SDS011;5028;50.974;4.968;2023-03-01T05:41:41;9.07;;;7.90;;
9974;SDS011;5028;50.974;4.968;2023-03-01T05:44:17;8.40;;;7.43;;
9974;SDS011;5028;50.974;4.968;2023-03-01T05:46:46;9.13;;;7.13;;
9974;SDS011;5028;50.974;4.968;2023-03-01T05:49:24;8.73;;;7.43;;
9974;SDS011;5028;50.974;4.968;2023-03-01T05:51:57;8.70;;;7.77;;
9974;SDS011;5028;50.974;4.968;2023-03-01T05:54:34;8.13;;;7.33;;
9974;SDS011;5028;50.974;4.968;2023-03-01T05:57:02;9.10;;;8.20;;
9974;SDS011;5028;50.974;4.968;2023-03-01T05:59:37;12.03;;;7.73;;
9974;SDS011;5028;50.974;4.968;2023-03-01T06:02:12;8.80;;;7.10;;
9974;SDS011;5028;50.974;4.968;2023-03-01T06:04:54;10.80;;;7.80;;
9974;SDS011;5028;50.974;4.968;2023-03-01T06:07:31;8.00;;;7.20;;
9974;SDS011;5028;50.974;4.968;2023-03-01T06:10:07;9.87;;;7.30;;
9974;SDS011;5028;50.974;4.968;2023-03-01T06:12:37;8.17;;;7.30;;
9974;SDS011;5028;50.974;4.968;2023-03-01T06:15:15;8.37;;;7.47;;
9974;SDS011;5028;50.974;4.968;2023-03-01T06:17:46;8.50;;;7.30;;
9974;SDS011;5028;50.974;4.968;2023-03-01T06:20:25;12.40;;;8.07;;
9974;SDS011;5028;50.974;4.968;2023-03-01T06:23:03;9.10;;;7.80;;
9974;SDS011;5028;50.974;4.968;2023-03-01T06:25:35;7.77;;;6.97;;
9974;SDS011;5028;50.974;4.968;2023-03-01T06:28:12;9.70;;;7.83;;
9974;SDS011;5028;50.974;4.968;2023-03-01T06:30:42;9.40;;;7.53;;
9974;SDS011;5028;50.974;4.968;2023-03-01T06:33:12;8.93;;;7.20;;
9974;SDS011;5028;50.974;4.968;2023-03-01T06:35:48;9.63;;;7.73;;
9974;SDS011;5028;50.974;4.968;2023-03-01T06:38:25;10.17;;;7.70;;
9974;SDS011;5028;50.974;4.968;2023-03-01T06:40:54;9.07;;;7.97;;
9974;SDS011;5028;50.974;4.968;2023-03-01T06:43:32;14.87;;;8.43;;
9974;SDS011;5028;50.974;4.968;2023-03-01T06:46:03;10.63;;;8.00;;
9974;SDS011;5028;50.974;4.968;2023-03-01T06:48:39;11.87;;;8.00;;
9974;SDS011;5028;50.974;4.968;2023-03-01T06:51:08;14.70;;;8.37;;
9974;SDS011;5028;50.974;4.968;2023-03-01T06:53:47;12.67;;;7.50;;
9974;SDS011;5028;50.974;4.968;2023-03-01T06:56:22;9.53;;;7.70;;
9974;SDS011;5028;50.974;4.968;2023-03-01T06:58:51;14.03;;;8.40;;
9974;SDS011;5028;50.974;4.968;2023-03-01T07:01:27;9.20;;;7.97;;
9974;SDS011;5028;50.974;4.968;2023-03-01T07:04:10;10.10;;;8.50;;
9974;SDS011;5028;50.974;4.968;2023-03-01T07:06:46;14.67;;;8.47;;
9974;SDS011;5028;50.974;4.968;2023-03-01T07:09:29;10.37;;;8.60;;
9974;SDS011;5028;50.974;4.968;2023-03-01T07:12:04;11.17;;;8.23;;
9974;SDS011;5028;50.974;4.968;2023-03-01T07:14:34;12.43;;;8.63;;
9974;SDS011;5028;50.974;4.968;2023-03-01T07:17:09;10.90;;;8.47;;
9974;SDS011;5028;50.974;4.968;2023-03-01T07:19:41;12.17;;;8.33;;
9974;SDS011;5028;50.974;4.968;2023-03-01T07:22:20;9.87;;;8.37;;
9974;SDS011;5028;50.974;4.968;2023-03-01T07:25:03;12.93;;;8.60;;
9974;SDS011;5028;50.974;4.968;2023-03-01T07:27:32;12.93;;;9.10;;
9974;SDS011;5028;50.974;4.968;2023-03-01T07:30:08;10.07;;;8.47;;
9974;SDS011;5028;50.974;4.968;2023-03-01T07:32:44;10.60;;;9.33;;
9974;SDS011;5028;50.974;4.968;2023-03-01T07:35:18;10.97;;;8.77;;
9974;SDS011;5028;50.974;4.968;2023-03-01T07:37:53;11.13;;;8.53;;
9974;SDS011;5028;50.974;4.968;2023-03-01T07:40:24;12.37;;;9.23;;
9974;SDS011;5028;50.974;4.968;2023-03-01T07:42:54;13.07;;;9.67;;
9974;SDS011;5028;50.974;4.968;2023-03-01T07:45:30;12.77;;;9.57;;
9974;SDS011;5028;50.974;4.968;2023-03-01T07:48:01;15.67;;;9.20;;
9974;SDS011;5028;50.974;4.968;2023-03-01T07:50:38;12.00;;;8.57;;
9974;SDS011;5028;50.974;4.968;2023-03-01T07:53:08;10.27;;;9.07;;
9974;SDS011;5028;50.974;4.968;2023-03-01T07:55:39;12.60;;;9.27;;
9974;SDS011;5028;50.974;4.968;2023-03-01T07:58:15;10.77;;;8.83;;
9974;SDS011;5028;50.974;4.968;2023-03-01T08:00:45;11.67;;;9.73;;
9974;SDS011;5028;50.974;4.968;2023-03-01T08:03:27;11.40;;;9.10;;
9974;SDS011;5028;50.974;4.968;2023-03-01T08:06:09;14.77;;;8.27;;
9974;SDS011;5028;50.974;4.968;2023-03-01T08:08:44;10.20;;;8.63;;
9974;SDS011;5028;50.974;4.968;2023-03-01T08:11:15;12.70;;;9.50;;
9974;SDS011;5028;50.974;4.968;2023-03-01T08:13:52;9.83;;;8.83;;
9974;SDS011;5028;50.974;4.968;2023-03-01T08:16:20;10.93;;;8.53;;
9974;SDS011;5028;50.974;4.968;2023-03-01T08:18:56;9.30;;;8.40;;
9974;SDS011;5028;50.974;4.968;2023-03-01T08:21:27;10.93;;;8.40;;
9974;SDS011;5028;50.974;4.968;2023-03-01T08:24:03;10.37;;;8.77;;
9974;SDS011;5028;50.974;4.968;2023-03-01T08:26:45;11.67;;;8.80;;
9974;SDS011;5028;50.974;4.968;2023-03-01T08:29:20;9.67;;;8.63;;
9974;SDS011;5028;50.974;4.968;2023-03-01T08:31:58;9.97;;;8.70;;
9974;SDS011;5028;50.974;4.968;2023-03-01T08:34:27;9.73;;;8.00;;
9974;SDS011;5028;50.974;4.968;2023-03-01T08:37:04;10.17;;;8.50;;
9974;SDS011;5028;50.974;4.968;2023-03-01T08:39:36;10.50;;;8.10;;
9974;SDS011;5028;50.974;4.968;2023-03-01T08:42:13;9.53;;;8.53;;
9974;SDS011;5028;50.974;4.968;2023-03-01T08:44:42;12.43;;;8.70;;
9974;SDS011;5028;50.974;4.968;2023-03-01T08:47:17;11.33;;;8.63;;
9974;SDS011;5028;50.974;4.968;2023-03-01T08:49:46;9.17;;;8.20;;
9974;SDS011;5028;50.974;4.968;2023-03-01T08:52:22;9.60;;;8.23;;
9974;SDS011;5028;50.974;4.968;2023-03-01T08:54:53;9.20;;;6.93;;
9974;SDS011;5028;50.974;4.968;2023-03-01T08:57:29;8.93;;;7.73;;
9974;SDS011;5028;50.974;4.968;2023-03-01T08:59:58;10.03;;;7.90;;
9974;SDS011;5028;50.974;4.968;2023-03-01T09:02:32;9.20;;;7.90;;
9974;SDS011;5028;50.974;4.968;2023-03-01T09:05:08;11.03;;;8.23;;
9974;SDS011;5028;50.974;4.968;2023-03-01T09:07:45;11.53;;;7.90;;
9974;SDS011;5028;50.974;4.968;2023-03-01T09:10:14;9.10;;;7.60;;
9974;SDS011;5028;50.974;4.968;2023-03-01T09:12:52;8.60;;;7.47;;
9974;SDS011;5028;50.974;4.968;2023-03-01T09:15:28;10.50;;;8.23;;
9974;SDS011;5028;50.974;4.968;2023-03-01T09:18:03;9.43;;;8.37;;
9974;SDS011;5028;50.974;4.968;2023-03-01T09:20:32;10.93;;;8.30;;
9974;SDS011;5028;50.974;4.968;2023-03-01T09:23:08;12.33;;;8.30;;
9974;SDS011;5028;50.974;4.968;2023-03-01T09:25:36;11.63;;;8.43;;
9974;SDS011;5028;50.974;4.968;2023-03-01T09:28:14;9.30;;;8.10;;
9974;SDS011;5028;50.974;4.968;2023-03-01T09:30:57;9.40;;;8.40;;
9974;SDS011;5028;50.974;4.968;2023-03-01T09:33:32;10.80;;;8.00;;
9974;SDS011;5028;50.974;4.968;2023-03-01T09:36:03;11.80;;;8.87;;
9974;SDS011;5028;50.974;4.968;2023-03-01T09:38:40;8.60;;;7.70;;
9974;SDS011;5028;50.974;4.968;2023-03-01T09:41:09;9.37;;;8.07;;
9974;SDS011;5028;50.974;4.968;2023-03-01T09:43:57;9.70;;;8.53;;
9974;SDS011;5028;50.974;4.968;2023-03-01T09:46:31;9.57;;;8.10;;
9974;SDS011;5028;50.974;4.968;2023-03-01T09:49:12;14.67;;;8.47;;
9974;SDS011;5028;50.974;4.968;2023-03-01T09:51:48;11.93;;;7.83;;
9974;SDS011;5028;50.974;4.968;2023-03-01T09:54:31;9.87;;;8.20;;
9974;SDS011;5028;50.974;4.968;2023-03-01T09:57:11;12.30;;;8.13;;
9974;SDS011;5028;50.974;4.968;2023-03-01T10:02:48;10.23;;;8.23;;
9974;SDS011;5028;50.974;4.968;2023-03-01T10:05:33;9.00;;;8.10;;
9974;SDS011;5028;50.974;4.968;2023-03-01T10:11:16;12.13;;;8.47;;
9974;SDS011;5028;50.974;4.968;2023-03-01T10:13:52;9.43;;;8.13;;
9974;SDS011;5028;50.974;4.968;2023-03-01T10:16:37;12.27;;;9.00;;
9974;SDS011;5028;50.974;4.968;2023-03-01T10:19:11;10.63;;;8.17;;
9974;SDS011;5028;50.974;4.968;2023-03-01T10:21:50;9.97;;;8.47;;
9974;SDS011;5028;50.974;4.968;2023-03-01T10:24:20;11.50;;;8.00;;
9974;SDS011;5028;50.974;4.968;2023-03-01T10:26:56;10.03;;;7.77;;
9974;SDS011;5028;50.974;4.968;2023-03-01T10:29:30;11.90;;;7.90;;
9974;SDS011;5028;50.974;4.968;2023-03-01T10:32:18;9.93;;;8.27;;
9974;SDS011;5028;50.974;4.968;2023-03-01T10:34:50;9.97;;;7.80;;
9974;SDS011;5028;50.974;4.968;2023-03-01T10:37:25;12.90;;;8.37;;
9974;SDS011;5028;50.974;4.968;2023-03-01T10:39:56;9.93;;;8.03;;
9974;SDS011;5028;50.974;4.968;2023-03-01T10:42:33;9.50;;;7.70;;
9974;SDS011;5028;50.974;4.968;2023-03-01T10:45:17;8.33;;;7.43;;
9974;SDS011;5028;50.974;4.968;2023-03-01T10:48:12;9.83;;;7.77;;
9974;SDS011;5028;50.974;4.968;2023-03-01T10:50:51;9.13;;;8.00;;
9974;SDS011;5028;50.974;4.968;2023-03-01T10:53:42;10.70;;;7.63;;
9974;SDS011;5028;50.974;4.968;2023-03-01T10:56:22;7.23;;;6.53;;
9974;SDS011;5028;50.974;4.968;2023-03-01T10:58:57;11.33;;;8.10;;
9974;SDS011;5028;50.974;4.968;2023-03-01T11:01:33;8.53;;;7.27;;
9974;SDS011;5028;50.974;4.968;2023-03-01T11:04:12;8.97;;;7.23;;
9974;SDS011;5028;50.974;4.968;2023-03-01T11:06:57;9.00;;;7.67;;
9974;SDS011;5028;50.974;4.968;2023-03-01T11:09:33;10.37;;;7.33;;
9974;SDS011;5028;50.974;4.968;2023-03-01T11:12:13;8.30;;;6.97;;
9974;SDS011;5028;50.974;4.968;2023-03-01T11:14:46;9.13;;;7.80;;
9974;SDS011;5028;50.974;4.968;2023-03-01T11:17:24;7.50;;;6.77;;
9974;SDS011;5028;50.974;4.968;2023-03-01T11:20:10;9.60;;;7.77;;
9974;SDS011;5028;50.974;4.968;2023-03-01T11:22:56;8.80;;;7.30;;
9974;SDS011;5028;50.974;4.968;2023-03-01T11:25:29;9.23;;;7.63;;
9974;SDS011;5028;50.974;4.968;2023-03-01T11:28:07;8.53;;;7.40;;
9974;SDS011;5028;50.974;4.968;2023-03-01T11:30:44;8.60;;;7.17;;
9974;SDS011;5028;50.974;4.968;2023-03-01T11:33:35;10.90;;;7.70;;
9974;SDS011;5028;50.974;4.968;2023-03-01T11:36:15;9.20;;;8.30;;
9974;SDS011;5028;50.974;4.968;2023-03-01T11:39:02;8.63;;;7.40;;
9974;SDS011;5028;50.974;4.968;2023-03-01T11:41:41;7.80;;;6.93;;
9974;SDS011;5028;50.974;4.968;2023-03-01T11:44:18;7.17;;;6.47;;
9974;SDS011;5028;50.974;4.968;2023-03-01T11:47:06;8.10;;;7.30;;
9974;SDS011;5028;50.974;4.968;2023-03-01T11:50:14;8.07;;;6.90;;
9974;SDS011;5028;50.974;4.968;2023-03-01T11:52:51;8.10;;;7.30;;
9974;SDS011;5028;50.974;4.968;2023-03-01T11:55:43;8.53;;;7.37;;
9974;SDS011;5028;50.974;4.968;2023-03-01T11:58:29;8.50;;;7.60;;
9974;SDS011;5028;50.974;4.968;2023-03-01T12:01:20;9.10;;;7.13;;
9974;SDS011;5028;50.974;4.968;2023-03-01T12:04:29;7.70;;;6.80;;
9974;SDS011;5028;50.974;4.968;2023-03-01T12:07:27;8.87;;;7.10;;
9974;SDS011;5028;50.974;4.968;2023-03-01T12:10:33;7.67;;;6.87;;
9974;SDS011;5028;50.974;4.968;2023-03-01T12:13:23;8.50;;;7.33;;
9974;SDS011;5028;50.974;4.968;2023-03-01T12:16:10;10.77;;;6.97;;
9974;SDS011;5028;50.974;4.968;2023-03-01T12:19:11;11.07;;;7.23;;
9974;SDS011;5028;50.974;4.968;2023-03-01T12:21:57;8.17;;;6.40;;
9974;SDS011;5028;50.974;4.968;2023-03-01T12:24:59;7.47;;;6.13;;
9974;SDS011;5028;50.974;4.968;2023-03-01T12:27:50;8.40;;;7.27;;
9974;SDS011;5028;50.974;4.968;2023-03-01T12:30:42;9.23;;;6.97;;
9974;SDS011;5028;50.974;4.968;2023-03-01T12:33:26;8.03;;;6.77;;
9974;SDS011;5028;50.974;4.968;2023-03-01T12:36:16;8.93;;;6.70;;
9974;SDS011;5028;50.974;4.968;2023-03-01T12:38:59;8.43;;;6.83;;
9974;SDS011;5028;50.974;4.968;2023-03-01T12:41:51;8.53;;;6.50;;
9974;SDS011;5028;50.974;4.968;2023-03-01T12:44:34;10.70;;;7.03;;
9974;SDS011;5028;50.974;4.968;2023-03-01T12:47:31;7.87;;;6.33;;
9974;SDS011;5028;50.974;4.968;2023-03-01T12:50:17;8.97;;;6.83;;
9974;SDS011;5028;50.974;4.968;2023-03-01T12:52:55;7.87;;;7.07;;
9974;SDS011;5028;50.974;4.968;2023-03-01T12:55:26;10.47;;;7.37;;
9974;SDS011;5028;50.974;4.968;2023-03-01T12:58:05;9.43;;;7.10;;
9974;SDS011;5028;50.974;4.968;2023-03-01T13:00:45;10.20;;;7.73;;
9974;SDS011;5028;50.974;4.968;2023-03-01T13:03:29;13.13;;;8.00;;
9974;SDS011;5028;50.974;4.968;2023-03-01T13:06:49;9.00;;;7.33;;
9974;SDS011;5028;50.974;4.968;2023-03-01T13:09:32;8.77;;;7.33;;
9974;SDS011;5028;50.974;4.968;2023-03-01T13:18:30;9.63;;;7.70;;
9974;SDS011;5028;50.974;4.968;2023-03-01T13:21:01;9.63;;;7.57;;
9974;SDS011;5028;50.974;4.968;2023-03-01T13:23:39;11.07;;;7.33;;
9974;SDS011;5028;50.974;4.968;2023-03-01T13:26:16;8.57;;;7.37;;
9974;SDS011;5028;50.974;4.968;2023-03-01T13:28:52;10.70;;;7.17;;
9974;SDS011;5028;50.974;4.968;2023-03-01T13:37:35;10.03;;;7.47;;
9974;SDS011;5028;50.974;4.968;2023-03-01T13:40:56;6.43;;;5.73;;
9974;SDS011;5028;50.974;4.968;2023-03-01T13:43:29;7.90;;;7.10;;
9974;SDS011;5028;50.974;4.968;2023-03-01T13:45:59;8.73;;;5.83;;
9974;SDS011;5028;50.974;4.968;2023-03-01T13:48:40;8.50;;;7.17;;
9974;SDS011;5028;50.974;4.968;2023-03-01T13:51:11;8.60;;;7.70;;
9974;SDS011;5028;50.974;4.968;2023-03-01T13:53:47;8.13;;;7.33;;
9974;SDS011;5028;50.974;4.968;2023-03-01T13:56:16;7.77;;;6.97;;
9974;SDS011;5028;50.974;4.968;2023-03-01T13:58:55;8.63;;;7.03;;
9974;SDS011;5028;50.974;4.968;2023-03-01T14:01:28;8.70;;;7.17;;
9974;SDS011;5028;50.974;4.968;2023-03-01T14:04:19;8.77;;;6.83;;
9974;SDS011;5028;50.974;4.968;2023-03-01T14:07:11;7.60;;;6.80;;
9974;SDS011;5028;50.974;4.968;2023-03-01T14:09:40;10.00;;;6.77;;
9974;SDS011;5028;50.974;4.968;2023-03-01T14:12:23;8.50;;;6.63;;
9974;SDS011;5028;50.974;4.968;2023-03-01T14:15:02;9.43;;;6.90;;
9974;SDS011;5028;50.974;4.968;2023-03-01T14:17:43;8.07;;;6.77;;
9974;SDS011;5028;50.974;4.968;2023-03-01T14:20:22;7.17;;;6.47;;
9974;SDS011;5028;50.974;4.968;2023-03-01T14:23:01;7.30;;;6.60;;
9974;SDS011;5028;50.974;4.968;2023-03-01T14:25:37;8.33;;;7.07;;
9974;SDS011;5028;50.974;4.968;2023-03-01T14:28:14;8.57;;;7.13;;
9974;SDS011;5028;50.974;4.968;2023-03-01T14:30:45;8.53;;;6.43;;
9974;SDS011;5028;50.974;4.968;2023-03-01T14:33:23;6.87;;;6.20;;
9974;SDS011;5028;50.974;4.968;2023-03-01T14:35:56;8.13;;;6.13;;
9974;SDS011;5028;50.974;4.968;2023-03-01T14:38:33;10.13;;;6.33;;
9974;SDS011;5028;50.974;4.968;2023-03-01T14:41:05;6.27;;;5.43;;
9974;SDS011;5028;50.974;4.968;2023-03-01T14:43:44;8.90;;;6.17;;
9974;SDS011;5028;50.974;4.968;2023-03-01T14:46:19;6.13;;;5.47;;
9974;SDS011;5028;50.974;4.968;2023-03-01T14:48:57;7.33;;;5.83;;
9974;SDS011;5028;50.974;4.968;2023-03-01T14:51:38;6.23;;;5.50;;
9974;SDS011;5028;50.974;4.968;2023-03-01T14:54:20;8.03;;;6.63;;
9974;SDS011;5028;50.974;4.968;2023-03-01T14:56:51;7.57;;;6.00;;
9974;SDS011;5028;50.974;4.968;2023-03-01T14:59:28;8.80;;;5.90;;
9974;SDS011;5028;50.974;4.968;2023-03-01T15:01:57;6.80;;;5.70;;
9974;SDS011;5028;50.974;4.968;2023-03-01T15:04:39;6.67;;;6.07;;
9974;SDS011;5028;50.974;4.968;2023-03-01T15:07:12;8.37;;;6.47;;
9974;SDS011;5028;50.974;4.968;2023-03-01T15:09:48;7.17;;;6.40;;
9974;SDS011;5028;50.974;4.968;2023-03-01T15:12:36;8.07;;;6.60;;
9974;SDS011;5028;50.974;4.968;2023-03-01T15:15:29;8.37;;;5.17;;
9974;SDS011;5028;50.974;4.968;2023-03-01T15:18:01;7.53;;;5.40;;
9974;SDS011;5028;50.974;4.968;2023-03-01T15:20:38;7.10;;;6.00;;
9974;SDS011;5028;50.974;4.968;2023-03-01T15:23:16;8.60;;;5.50;;
9974;SDS011;5028;50.974;4.968;2023-03-01T15:25:55;8.53;;;5.27;;
9974;SDS011;5028;50.974;4.968;2023-03-01T15:28:25;6.63;;;5.03;;
9974;SDS011;5028;50.974;4.968;2023-03-01T15:31:04;7.57;;;5.30;;
9974;SDS011;5028;50.974;4.968;2023-03-01T15:33:46;6.20;;;4.90;;
9974;SDS011;5028;50.974;4.968;2023-03-01T15:36:31;5.87;;;5.10;;
9974;SDS011;5028;50.974;4.968;2023-03-01T15:42:36;5.80;;;5.10;;
9974;SDS011;5028;50.974;4.968;2023-03-01T15:45:09;9.17;;;5.20;;
9974;SDS011;5028;50.974;4.968;2023-03-01T15:47:47;6.30;;;4.87;;
9974;SDS011;5028;50.974;4.968;2023-03-01T15:50:19;6.73;;;5.07;;
9974;SDS011;5028;50.974;4.968;2023-03-01T15:52:56;7.70;;;5.20;;
9974;SDS011;5028;50.974;4.968;2023-03-01T15:55:30;5.73;;;5.13;;
9974;SDS011;5028;50.974;4.968;2023-03-01T15:58:10;5.40;;;4.80;;
9974;SDS011;5028;50.974;4.968;2023-03-01T16:00:42;5.27;;;4.33;;
9974;SDS011;5028;50.974;4.968;2023-03-01T16:03:27;6.63;;;4.90;;
9974;SDS011;5028;50.974;4.968;2023-03-01T16:05:55;5.53;;;4.80;;
9974;SDS011;5028;50.974;4.968;2023-03-01T16:08:37;7.43;;;4.87;;
9974;SDS011;5028;50.974;4.968;2023-03-01T16:11:13;6.80;;;5.63;;
9974;SDS011;5028;50.974;4.968;2023-03-01T16:13:52;6.80;;;5.40;;
9974;SDS011;5028;50.974;4.968;2023-03-01T16:16:20;7.03;;;4.97;;
9974;SDS011;5028;50.974;4.968;2023-03-01T16:18:57;8.30;;;5.10;;
9974;SDS011;5028;50.974;4.968;2023-03-01T16:21:25;6.80;;;4.93;;
9974;SDS011;5028;50.974;4.968;2023-03-01T16:24:01;5.67;;;5.10;;
9974;SDS011;5028;50.974;4.968;2023-03-01T16:26:32;6.03;;;5.07;;
9974;SDS011;5028;50.974;4.968;2023-03-01T16:29:07;7.33;;;4.60;;
9974;SDS011;5028;50.974;4.968;2023-03-01T16:31:36;5.37;;;4.87;;
9974;SDS011;5028;50.974;4.968;2023-03-01T16:34:11;6.37;;;4.87;;